createdAt,value
2022-11-26T22:25:17.535Z,1019.09
2022-11-26T22:26:17.685Z,1019.10
2022-11-26T22:30:40.840Z,1019.01
2022-11-26T22:31:07.620Z,1018.95
2022-11-26T22:33:08.894Z,1018.95
2022-11-26T22:34:08.848Z,1018.92
2022-11-26T22:36:12.732Z,1018.85
2022-11-26T22:37:12.694Z,1018.87
2022-11-26T22:40:59.264Z,1018.79
2022-11-26T22:41:59.192Z,1018.80
2022-11-26T22:44:03.558Z,1018.75
2022-11-26T22:45:03.513Z,1018.75
2022-11-26T22:46:03.599Z,1018.75
2022-11-26T22:47:03.452Z,1018.78
2022-11-26T22:48:03.401Z,1018.75
2022-11-26T22:50:02.121Z,1018.76
2022-11-26T22:51:02.058Z,1018.87
2022-11-26T22:55:07.276Z,1018.88
2022-11-26T22:56:07.223Z,1018.92
2022-11-26T22:58:11.786Z,1018.83
2022-11-26T22:59:11.090Z,1018.86
2022-11-26T23:00:11.026Z,1018.81
2022-11-26T23:01:10.997Z,1018.80
2022-11-26T23:02:11.003Z,1018.80
2022-11-26T23:03:11.063Z,1018.76
2022-11-26T23:04:10.958Z,1018.76
2022-11-26T23:05:10.882Z,1018.73
2022-11-26T23:06:10.802Z,1018.70
2022-11-26T23:07:10.823Z,1018.65
2022-11-26T23:08:10.729Z,1018.64
2022-11-26T23:09:10.871Z,1018.59
2022-11-26T23:10:10.655Z,1018.58
2022-11-26T23:11:10.628Z,1018.59
2022-11-26T23:12:10.570Z,1018.59
2022-11-26T23:13:10.531Z,1018.54
2022-11-26T23:14:10.499Z,1018.57
2022-11-26T23:15:10.464Z,1018.55
2022-11-26T23:16:10.565Z,1018.54
2022-11-26T23:17:10.402Z,1018.52
2022-11-26T23:18:10.340Z,1018.52
2022-11-26T23:19:10.296Z,1018.49
2022-11-26T23:20:10.265Z,1018.46
2022-11-26T23:21:10.235Z,1018.44
2022-11-26T23:22:10.186Z,1018.43
2022-11-26T23:23:10.152Z,1018.41
2022-11-26T23:24:10.112Z,1018.38
2022-11-26T23:25:10.080Z,1018.33
2022-11-26T23:26:10.030Z,1018.31
2022-11-26T23:27:09.994Z,1018.27
2022-11-26T23:28:09.956Z,1018.27
2022-11-26T23:29:09.925Z,1018.27
2022-11-26T23:30:09.880Z,1018.27
2022-11-26T23:31:09.938Z,1018.24
2022-11-26T23:32:09.799Z,1018.23
2022-11-26T23:33:09.772Z,1018.20
2022-11-26T23:34:09.742Z,1018.19
2022-11-26T23:35:09.688Z,1018.17
2022-11-26T23:36:09.682Z,1018.14
2022-11-26T23:37:09.612Z,1018.12
2022-11-26T23:38:09.571Z,1018.09
2022-11-26T23:39:09.544Z,1018.05
2022-11-26T23:40:09.494Z,1018.06
2022-11-26T23:41:09.457Z,1018.03
2022-11-26T23:42:09.424Z,1018.04
2022-11-26T23:43:09.386Z,1018.04
2022-11-26T23:44:09.345Z,1018.05
2022-11-26T23:45:09.349Z,1018.05
2022-11-26T23:46:16.175Z,1018.02
2022-11-26T23:47:11.197Z,1018.05
2022-11-26T23:48:09.187Z,1018.03
2022-11-26T23:49:09.148Z,1018.02
2022-11-26T23:50:09.109Z,1017.94
2022-11-26T23:51:09.072Z,1017.97
2022-11-26T23:52:09.041Z,1017.96
2022-11-26T23:53:09.016Z,1017.96
2022-11-26T23:54:08.986Z,1017.92
2022-11-26T23:55:08.916Z,1017.93
2022-11-26T23:56:08.881Z,1017.94
2022-11-26T23:57:14.671Z,1017.92
2022-11-26T23:58:08.803Z,1017.94
2022-11-26T23:59:08.765Z,1017.94
